createdAt,value
2022-09-12T00:01:59.430Z,986.6
2022-09-12T00:04:00.879Z,986.5
2022-09-12T00:06:02.407Z,986.5
2022-09-12T00:08:04.175Z,986.5
2022-09-12T00:10:05.614Z,986.5
2022-09-12T00:12:06.604Z,986.5
2022-09-12T00:14:07.527Z,986.5
2022-09-12T00:16:09.437Z,986.4
2022-09-12T00:18:11.285Z,986.4
2022-09-12T00:20:13.219Z,986.3
2022-09-12T00:22:14.877Z,986.2
2022-09-12T00:24:16.377Z,986.3
2022-09-12T00:26:18.327Z,986.3
2022-09-12T00:28:19.819Z,986.3
2022-09-12T00:30:21.325Z,986.3
2022-09-12T00:32:22.919Z,986.3
2022-09-12T00:34:24.799Z,986.2
2022-09-12T00:36:25.804Z,986.3
2022-09-12T00:38:27.211Z,986.3
2022-09-12T00:40:29.020Z,986.3
2022-09-12T00:42:30.235Z,986.3
2022-09-12T00:44:32.025Z,986.3
2022-09-12T00:46:33.386Z,986.2
2022-09-12T00:48:34.950Z,986.2
2022-09-12T00:50:35.990Z,986.2
2022-09-12T00:52:37.369Z,986.2
2022-09-12T00:54:38.726Z,986.2
2022-09-12T00:56:40.339Z,986.1
2022-09-12T00:58:41.798Z,986.2
2022-09-12T01:00:43.349Z,986.2
2022-09-12T01:02:45.140Z,986.1
2022-09-12T01:04:46.418Z,986.1
2022-09-12T01:06:48.336Z,986.1
2022-09-12T01:08:49.895Z,986.1
2022-09-12T01:10:51.817Z,986.1
2022-09-12T01:12:53.710Z,986
2022-09-12T01:14:55.545Z,985.9
2022-09-12T01:16:56.881Z,986.1
2022-09-12T01:18:58.008Z,986
2022-09-12T01:20:59.403Z,986.2
2022-09-12T01:23:01.360Z,986
2022-09-12T01:27:04.651Z,986
2022-09-12T01:29:06.349Z,986
2022-09-12T01:31:08.202Z,986
2022-09-12T01:33:09.874Z,985.9
2022-09-12T01:35:11.326Z,985.9
2022-09-12T01:37:13.189Z,985.9
2022-09-12T01:39:14.291Z,986
2022-09-12T01:41:15.719Z,985.9
2022-09-12T01:43:16.740Z,985.9
2022-09-12T01:45:17.808Z,985.9
2022-09-12T01:47:19.401Z,986
2022-09-12T01:49:21.206Z,985.9
2022-09-12T01:51:22.628Z,985.9
2022-09-12T01:53:23.602Z,985.9
2022-09-12T01:55:25.416Z,985.9
2022-09-12T01:57:26.320Z,985.9
2022-09-12T01:59:28.081Z,985.8
2022-09-12T02:01:29.627Z,985.9
2022-09-12T02:03:30.725Z,985.9
2022-09-12T02:05:32.189Z,985.8
2022-09-12T02:07:33.797Z,985.8
2022-09-12T02:09:35.008Z,985.7
2022-09-12T02:11:36.298Z,985.8
2022-09-12T02:13:37.914Z,985.8
2022-09-12T02:15:39.389Z,985.7
2022-09-12T02:17:40.923Z,985.7
2022-09-12T02:19:42.358Z,985.7
2022-09-12T02:21:44.080Z,985.7
2022-09-12T02:23:45.377Z,985.7
2022-09-12T02:25:46.853Z,985.6
2022-09-12T02:27:47.888Z,985.7
2022-09-12T02:29:49.804Z,985.7
2022-09-12T02:33:52.883Z,985.7
2022-09-12T02:35:54.553Z,985.7
2022-09-12T02:37:56.078Z,985.7
2022-09-12T02:39:57.527Z,985.7
2022-09-12T02:41:58.999Z,985.7
2022-09-12T02:44:00.101Z,985.7
2022-09-12T02:46:01.911Z,985.7
2022-09-12T02:48:03.440Z,985.7
2022-09-12T02:50:05.015Z,985.6
2022-09-12T02:52:06.906Z,985.7
2022-09-12T02:54:08.459Z,985.6
2022-09-12T02:58:10.898Z,985.6
2022-09-12T03:00:12.344Z,985.7
2022-09-12T03:02:13.895Z,985.6
2022-09-12T03:04:14.991Z,985.7
2022-09-12T03:06:16.913Z,985.5
2022-09-12T03:08:18.781Z,985.6
2022-09-12T03:10:20.740Z,985.7
2022-09-12T03:12:22.008Z,985.6
2022-09-12T03:14:23.919Z,985.6
2022-09-12T03:16:25.120Z,985.6
2022-09-12T03:18:26.318Z,985.6
2022-09-12T03:20:27.739Z,985.6
2022-09-12T03:22:28.813Z,985.6
2022-09-12T03:24:30.719Z,985.7
2022-09-12T03:26:32.295Z,985.6
2022-09-12T03:28:33.525Z,985.6
2022-09-12T03:30:35.291Z,985.6
2022-09-12T03:32:36.899Z,985.6
2022-09-12T03:34:38.201Z,985.7
2022-09-12T03:36:39.688Z,985.7
2022-09-12T03:38:40.663Z,985.6
2022-09-12T03:42:43.849Z,985.6
2022-09-12T03:44:45.339Z,985.7
2022-09-12T03:46:46.534Z,985.7
2022-09-12T03:48:47.838Z,985.7
2022-09-12T03:50:49.338Z,985.6
2022-09-12T03:52:50.952Z,985.7
2022-09-12T03:54:52.715Z,985.7
2022-09-12T03:56:53.878Z,985.7
2022-09-12T03:58:55.414Z,985.7
2022-09-12T04:00:57.172Z,985.7
2022-09-12T04:02:59.051Z,985.5
2022-09-12T04:05:00.833Z,985.6
2022-09-12T04:07:02.653Z,985.7
2022-09-12T04:09:03.628Z,985.6
2022-09-12T04:11:05.008Z,985.7
2022-09-12T04:13:06.520Z,985.7
2022-09-12T04:15:07.477Z,985.7
2022-09-12T04:17:08.661Z,985.6
2022-09-12T04:19:09.724Z,985.6
2022-09-12T04:21:10.682Z,985.7
2022-09-12T04:23:11.814Z,985.6
2022-09-12T04:25:13.741Z,985.6
2022-09-12T04:27:15.382Z,985.6
2022-09-12T04:29:16.708Z,985.7
2022-09-12T04:31:18.249Z,985.7
2022-09-12T04:33:19.633Z,985.7
2022-09-12T04:35:21.161Z,985.7
2022-09-12T04:37:22.511Z,985.6
2022-09-12T04:39:23.547Z,985.6
2022-09-12T04:41:25.338Z,985.6
2022-09-12T04:43:26.981Z,985.6
2022-09-12T04:45:28.860Z,985.7
2022-09-12T04:49:32.556Z,985.7
2022-09-12T04:51:33.879Z,985.6
2022-09-12T04:53:34.853Z,985.6
2022-09-12T04:55:36.603Z,985.5
2022-09-12T04:59:39.449Z,985.6
2022-09-12T05:01:41.266Z,985.6
2022-09-12T05:03:42.781Z,985.7
2022-09-12T05:05:44.237Z,985.7
2022-09-12T05:07:46.196Z,985.6
2022-09-12T05:09:47.101Z,985.6
2022-09-12T05:12:03.009Z,985.6
2022-09-12T05:13:49.976Z,985.6
2022-09-12T05:15:51.664Z,985.7
2022-09-12T05:17:53.397Z,985.6
2022-09-12T05:19:55.306Z,985.7
2022-09-12T05:21:56.763Z,985.6
2022-09-12T05:23:58.025Z,985.7
2022-09-12T05:25:59.642Z,985.6
2022-09-12T05:28:01.147Z,985.7
2022-09-12T05:30:02.304Z,985.7
2022-09-12T05:32:03.981Z,985.7
2022-09-12T05:34:05.027Z,985.7
2022-09-12T05:36:06.621Z,985.8
2022-09-12T05:38:07.870Z,985.7
2022-09-12T05:40:09.570Z,985.7
2022-09-12T05:42:11.443Z,985.9
2022-09-12T05:44:12.448Z,985.8
2022-09-12T05:48:15.706Z,985.8
2022-09-12T05:50:17.524Z,985.8
2022-09-12T05:52:19.207Z,985.8
2022-09-12T05:54:21.046Z,985.9
2022-09-12T05:56:22.267Z,985.8
2022-09-12T05:58:23.999Z,985.9
2022-09-12T06:00:27.569Z,985.9
2022-09-12T06:02:27.382Z,986
2022-09-12T06:04:28.730Z,985.9
2022-09-12T06:06:30.106Z,985.9
2022-09-12T06:08:31.264Z,986
2022-09-12T06:10:32.308Z,986
2022-09-12T06:12:33.266Z,985.9
2022-09-12T06:14:34.429Z,985.9
2022-09-12T06:16:36.388Z,985.9
2022-09-12T06:18:38.120Z,985.9
2022-09-12T06:20:39.080Z,985.9
2022-09-12T06:22:40.679Z,985.9
2022-09-12T06:24:42.565Z,985.9
2022-09-12T06:26:44.254Z,985.8
2022-09-12T06:28:45.992Z,985.9
2022-09-12T06:30:47.790Z,985.9
2022-09-12T06:32:49.521Z,985.9
2022-09-12T06:34:50.795Z,985.9
2022-09-12T06:36:51.798Z,985.9
2022-09-12T06:38:53.076Z,985.8
2022-09-12T06:40:54.601Z,985.8
2022-09-12T06:42:55.628Z,985.9
2022-09-12T06:45:41.103Z,985.8
2022-09-12T06:47:42.618Z,985.8
2022-09-12T06:49:43.777Z,985.8
2022-09-12T06:51:44.692Z,985.7
2022-09-12T06:53:46.191Z,985.7
2022-09-12T06:55:47.446Z,985.8
2022-09-12T06:57:49.233Z,985.8
2022-09-12T06:59:50.753Z,985.8
2022-09-12T07:01:52.011Z,985.9
2022-09-12T07:03:53.692Z,985.8
2022-09-12T07:07:56.683Z,985.8
2022-09-12T07:09:57.841Z,985.9
2022-09-12T07:11:59.413Z,985.8
2022-09-12T07:14:01.008Z,986
2022-09-12T07:16:02.093Z,986
2022-09-12T07:18:03.275Z,985.8
2022-09-12T07:20:05.074Z,985.9
2022-09-12T07:22:06.037Z,985.9
2022-09-12T07:24:06.984Z,985.9
2022-09-12T07:26:08.582Z,985.8
2022-09-12T07:28:09.652Z,985.8
2022-09-12T07:30:10.678Z,985.8
2022-09-12T07:32:12.038Z,985.8
2022-09-12T07:34:13.156Z,985.9
2022-09-12T07:36:14.625Z,985.9
2022-09-12T07:38:16.127Z,985.9
2022-09-12T07:40:17.567Z,986
2022-09-12T07:42:18.810Z,985.9
2022-09-12T07:44:20.013Z,985.9
2022-09-12T07:46:21.856Z,985.9
2022-09-12T07:48:23.436Z,985.9
2022-09-12T07:50:24.933Z,985.8
2022-09-12T07:52:27.705Z,985.9
2022-09-12T07:54:28.650Z,985.8
2022-09-12T07:56:32.002Z,985.8
2022-09-12T07:58:31.508Z,985.8
2022-09-12T08:00:33.167Z,985.8
2022-09-12T08:02:34.187Z,985.9
2022-09-12T08:04:35.585Z,985.9
2022-09-12T08:06:36.771Z,985.8
2022-09-12T08:08:38.245Z,985.7
2022-09-12T08:10:39.251Z,985.8
2022-09-12T08:12:40.382Z,985.8
2022-09-12T08:14:41.571Z,985.8
2022-09-12T08:16:42.684Z,985.8
2022-09-12T08:18:44.191Z,985.8
2022-09-12T08:20:45.193Z,985.8
2022-09-12T08:22:46.252Z,985.8
2022-09-12T08:24:47.948Z,985.8
2022-09-12T08:26:49.205Z,985.7
2022-09-12T08:28:50.747Z,985.7
2022-09-12T08:30:51.840Z,985.8
2022-09-12T08:32:52.640Z,985.8
2022-09-12T08:36:55.928Z,985.7
2022-09-12T08:38:59.504Z,985.7
2022-09-12T08:40:58.067Z,985.7
2022-09-12T08:42:59.751Z,985.7
2022-09-12T08:45:01.470Z,985.7
2022-09-12T08:47:02.502Z,985.7
2022-09-12T08:49:03.885Z,985.7
2022-09-12T08:51:05.426Z,985.7
2022-09-12T08:53:06.783Z,985.6
2022-09-12T08:55:08.526Z,985.6
2022-09-12T08:57:09.548Z,985.6
2022-09-12T08:59:11.140Z,985.6
2022-09-12T09:01:12.663Z,985.5
2022-09-12T09:03:13.655Z,985.5
2022-09-12T09:05:14.563Z,985.6
2022-09-12T09:07:15.559Z,985.6
2022-09-12T09:09:16.871Z,985.7
2022-09-12T09:11:18.450Z,985.6
2022-09-12T09:13:20.085Z,985.7
2022-09-12T09:15:22.277Z,985.6
2022-09-12T09:17:24.011Z,985.8
2022-09-12T09:19:25.266Z,985.6
2022-09-12T09:21:26.649Z,985.6
2022-09-12T09:23:28.241Z,985.6
2022-09-12T09:25:29.405Z,985.6
2022-09-12T09:27:40.287Z,985.6
2022-09-12T09:31:32.031Z,985.5
2022-09-12T09:33:33.175Z,985.5
2022-09-12T09:35:36.462Z,985.4
2022-09-12T09:37:35.810Z,985.4
2022-09-12T09:41:38.180Z,985.3
2022-09-12T09:43:39.900Z,985.4
2022-09-12T09:45:43.378Z,985.3
2022-09-12T09:47:42.294Z,985.3
2022-09-12T09:49:43.601Z,985.3
2022-09-12T09:51:44.754Z,985.3
2022-09-12T09:53:46.293Z,985.3
2022-09-12T09:55:47.065Z,985.3
2022-09-12T09:57:48.755Z,985.2
2022-09-12T09:59:50.273Z,985.3
2022-09-12T10:01:51.077Z,985.3
2022-09-12T10:03:52.397Z,985.3
2022-09-12T10:05:53.823Z,985.2
2022-09-12T10:07:55.225Z,985.2
2022-09-12T10:11:57.793Z,985.3
2022-09-12T10:13:59.137Z,985.2
2022-09-12T10:16:00.884Z,985.2
2022-09-12T10:18:02.245Z,985.1
2022-09-12T10:20:20.270Z,985.2
2022-09-12T10:22:04.751Z,985.2
2022-09-12T10:24:05.610Z,985.1
2022-09-12T10:26:07.006Z,985.2
2022-09-12T10:30:09.920Z,985.1
2022-09-12T10:32:11.267Z,985.1
2022-09-12T10:34:12.719Z,985
2022-09-12T10:36:13.590Z,985.1
2022-09-12T10:38:14.528Z,985.2
2022-09-12T10:42:21.595Z,985.1
2022-09-12T10:44:19.882Z,984.9
2022-09-12T10:46:21.477Z,985
2022-09-12T10:48:23.107Z,985
2022-09-12T10:50:24.611Z,985
2022-09-12T10:52:26.365Z,985
2022-09-12T10:54:28.117Z,985
2022-09-12T10:56:29.093Z,984.9
2022-09-12T10:58:29.887Z,985
2022-09-12T11:00:30.875Z,985
2022-09-12T11:02:31.702Z,985
2022-09-12T11:04:32.810Z,984.9
2022-09-12T11:06:34.191Z,984.9
2022-09-12T11:08:35.370Z,984.8
2022-09-12T11:10:37.439Z,984.8
2022-09-12T11:12:37.752Z,984.8
2022-09-12T11:14:39.465Z,984.9
2022-09-12T11:16:42.892Z,984.8
2022-09-12T11:18:41.484Z,984.8
2022-09-12T11:20:52.193Z,984.8
2022-09-12T11:22:44.923Z,984.8
2022-09-12T11:24:46.588Z,984.8
2022-09-12T11:26:47.466Z,984.7
2022-09-12T11:28:48.551Z,984.7
2022-09-12T11:30:50.191Z,984.6
2022-09-12T11:32:51.395Z,984.6
2022-09-12T11:34:52.758Z,984.6
2022-09-12T11:36:54.415Z,984.6
2022-09-12T11:38:55.990Z,984.6
2022-09-12T11:40:57.310Z,984.5
2022-09-12T11:42:58.142Z,984.5
2022-09-12T11:44:59.498Z,984.6
2022-09-12T11:47:00.669Z,984.5
2022-09-12T11:49:01.891Z,984.5
2022-09-12T11:51:02.684Z,984.5
2022-09-12T11:53:04.453Z,984.5
2022-09-12T11:55:05.563Z,984.5
2022-09-12T11:59:07.463Z,984.5
2022-09-12T12:01:09.001Z,984.5
2022-09-12T12:03:10.361Z,984.5
2022-09-12T12:07:12.829Z,984.4
2022-09-12T12:11:15.149Z,984.4
2022-09-12T12:13:16.672Z,984.4
2022-09-12T12:15:17.669Z,984.4
2022-09-12T12:17:19.358Z,984.3
2022-09-12T12:19:20.581Z,984.3
2022-09-12T12:21:21.812Z,984.2
2022-09-12T12:23:23.353Z,984.2
2022-09-12T12:25:27.556Z,984.2
2022-09-12T12:27:25.991Z,984.2
2022-09-12T12:29:26.810Z,984.2
2022-09-12T12:31:28.367Z,984.2
2022-09-12T12:33:29.835Z,984.2
2022-09-12T12:35:30.915Z,984.3
2022-09-12T12:37:32.280Z,984.2
2022-09-12T12:39:33.322Z,984.2
2022-09-12T12:41:35.068Z,984.1
2022-09-12T12:43:36.240Z,984.1
2022-09-12T12:45:37.946Z,984
2022-09-12T12:47:39.286Z,984.1
2022-09-12T12:49:40.444Z,984
2022-09-12T12:51:41.530Z,984
2022-09-12T12:53:43.197Z,983.9
2022-09-12T12:55:44.610Z,984
2022-09-12T12:57:45.454Z,983.9
2022-09-12T12:59:46.369Z,984
2022-09-12T13:01:49.504Z,983.9
2022-09-12T13:03:49.363Z,984
2022-09-12T13:05:50.711Z,983.9
2022-09-12T13:07:51.606Z,983.9
2022-09-12T13:09:52.446Z,983.9
2022-09-12T13:11:53.525Z,983.9
2022-09-12T13:13:54.548Z,983.9
2022-09-12T13:15:55.472Z,983.8
2022-09-12T13:17:56.614Z,983.8
2022-09-12T13:20:17.149Z,983.6
2022-09-12T13:21:59.249Z,983.7
2022-09-12T13:24:00.654Z,983.7
2022-09-12T13:26:01.630Z,983.6
2022-09-12T13:28:03.059Z,983.6
2022-09-12T13:32:49.698Z,983.6
2022-09-12T13:34:50.715Z,983.6
2022-09-12T13:36:51.785Z,983.5
2022-09-12T13:38:53.012Z,983.4
2022-09-12T13:40:53.998Z,983.5
2022-09-12T13:42:55.703Z,983.5
2022-09-12T13:44:57.121Z,983.5
2022-09-12T13:48:59.531Z,983.5
2022-09-12T13:51:01.076Z,983.4
2022-09-12T13:53:02.513Z,983.5
2022-09-12T13:55:03.899Z,983.5
2022-09-12T13:57:05.140Z,983.5
2022-09-12T13:59:06.482Z,983.5
2022-09-12T14:03:08.684Z,983.4
2022-09-12T14:05:09.768Z,983.3
2022-09-12T14:07:10.871Z,983.3
2022-09-12T14:09:12.499Z,983.3
2022-09-12T14:11:14.094Z,983.2
2022-09-12T14:13:15.113Z,983.2
2022-09-12T14:15:16.637Z,983.3
2022-09-12T14:17:20.782Z,983.2
2022-09-12T14:19:18.782Z,983.2
2022-09-12T14:21:19.980Z,983.2
2022-09-12T14:23:20.987Z,983.3
2022-09-12T14:25:22.460Z,983.3
2022-09-12T14:31:26.201Z,983.3
2022-09-12T14:33:27.357Z,983.2
2022-09-12T14:35:28.925Z,983.2
2022-09-12T14:39:32.011Z,983.1
2022-09-12T14:41:33.583Z,983.1
2022-09-12T14:43:34.939Z,983.1
2022-09-12T14:45:35.908Z,983
2022-09-12T14:47:37.105Z,983
2022-09-12T14:49:38.717Z,983
2022-09-12T14:51:39.582Z,982.9
2022-09-12T14:53:40.583Z,982.9
2022-09-12T14:55:42.128Z,982.9
2022-09-12T14:57:43.193Z,982.9
2022-09-12T14:59:44.933Z,982.9
2022-09-12T15:01:46.262Z,982.9
2022-09-12T15:03:49.751Z,982.9
2022-09-12T15:05:49.193Z,982.9
2022-09-12T15:09:50.849Z,982.9
2022-09-12T15:11:52.586Z,982.9
2022-09-12T15:13:54.136Z,982.9
2022-09-12T15:15:55.754Z,983
2022-09-12T15:17:56.519Z,983
2022-09-12T15:19:57.599Z,982.9
2022-09-12T15:21:58.519Z,982.9
2022-09-12T15:23:59.291Z,982.8
2022-09-12T15:26:00.758Z,982.9
2022-09-12T15:28:02.439Z,982.8
2022-09-12T15:30:03.204Z,982.9
2022-09-12T15:32:04.486Z,982.8
2022-09-12T15:34:05.718Z,982.9
2022-09-12T15:36:07.448Z,982.7
2022-09-12T15:38:08.902Z,982.8
2022-09-12T15:40:10.193Z,982.8
2022-09-12T15:44:12.439Z,982.9
2022-09-12T15:46:14.035Z,982.8
2022-09-12T15:48:15.365Z,982.8
2022-09-12T15:50:16.951Z,982.8
2022-09-12T15:52:18.391Z,982.8
2022-09-12T15:54:19.117Z,982.7
2022-09-12T15:56:20.275Z,982.7
2022-09-12T15:58:21.817Z,982.6
2022-09-12T16:00:22.640Z,982.6
2022-09-12T16:02:23.591Z,982.6
2022-09-12T16:04:25.231Z,982.6
2022-09-12T16:06:26.312Z,982.5
2022-09-12T16:10:29.088Z,982.6
2022-09-12T16:12:29.907Z,982.5
2022-09-12T16:14:30.992Z,982.5
2022-09-12T16:16:32.652Z,982.4
2022-09-12T16:20:34.928Z,982.4
2022-09-12T16:22:36.525Z,982.4
2022-09-12T16:24:37.747Z,982.4
2022-09-12T16:26:39.043Z,982.4
2022-09-12T16:28:40.572Z,982.3
2022-09-12T16:30:41.808Z,982.4
2022-09-12T16:32:43.560Z,982.3
2022-09-12T16:34:44.656Z,982.2
2022-09-12T16:36:46.102Z,982.3
2022-09-12T16:38:47.718Z,982.3
2022-09-12T16:40:48.687Z,982.3
2022-09-12T16:42:49.770Z,982.2
2022-09-12T16:44:51.176Z,982.2
2022-09-12T16:46:52.033Z,982.2
2022-09-12T16:48:53.011Z,982.2
2022-09-12T16:50:53.917Z,982.2
2022-09-12T16:52:55.148Z,982.1
2022-09-12T16:54:56.945Z,982.1
2022-09-12T16:56:57.981Z,982.1
2022-09-12T16:58:59.767Z,982
2022-09-12T17:01:01.457Z,982.1
2022-09-12T17:03:03.245Z,982
2022-09-12T17:05:04.120Z,982.1
2022-09-12T17:07:05.551Z,982.1
2022-09-12T17:09:06.955Z,982
2022-09-12T17:11:07.990Z,982
2022-09-12T17:13:08.721Z,982.2
2022-09-12T17:15:10.159Z,982.1
2022-09-12T17:17:11.732Z,982.1
2022-09-12T17:19:12.784Z,982.2
2022-09-12T17:21:13.771Z,982.2
2022-09-12T17:23:15.261Z,982.2
2022-09-12T17:25:17.098Z,982.2
2022-09-12T17:27:18.779Z,982.2
2022-09-12T17:29:19.910Z,982.2
2022-09-12T17:31:21.082Z,982.2
2022-09-12T17:33:22.747Z,982.2
2022-09-12T17:35:23.706Z,982.2
2022-09-12T17:37:24.742Z,982.2
2022-09-12T17:39:26.192Z,982.3
2022-09-12T17:41:27.909Z,982.4
2022-09-12T17:43:29.577Z,982.3
2022-09-12T17:45:30.810Z,982.4
2022-09-12T17:47:32.195Z,982.3
2022-09-12T17:51:34.898Z,982.3
2022-09-12T17:53:36.273Z,982.4
2022-09-12T17:55:37.148Z,982.4
2022-09-12T17:57:38.220Z,982.4
2022-09-12T18:01:40.818Z,982.4
2022-09-12T18:03:42.095Z,982.3
2022-09-12T18:07:44.974Z,982.4
2022-09-12T18:09:46.511Z,982.4
2022-09-12T18:11:48.356Z,982.5
2022-09-12T18:13:50.569Z,982.5
2022-09-12T18:15:50.748Z,982.5
2022-09-12T18:17:52.513Z,982.6
2022-09-12T18:19:53.925Z,982.5
2022-09-12T18:21:55.048Z,982.5
2022-09-12T18:23:55.899Z,982.6
2022-09-12T18:25:56.852Z,982.5
2022-09-12T18:27:58.127Z,982.5
2022-09-12T18:32:00.720Z,982.6
2022-09-12T18:34:01.615Z,982.5
2022-09-12T18:36:02.966Z,982.5
2022-09-12T18:38:04.619Z,982.4
2022-09-12T18:40:05.785Z,982.4
2022-09-12T18:42:06.842Z,982.5
2022-09-12T18:44:08.653Z,982.4
2022-09-12T18:46:09.748Z,982.5
2022-09-12T18:48:10.660Z,982.4
2022-09-12T18:50:12.038Z,982.5
2022-09-12T18:52:13.274Z,982.5
2022-09-12T18:54:14.301Z,982.5
2022-09-12T18:56:16.153Z,982.4
2022-09-12T18:58:17.651Z,982.4
2022-09-12T19:00:18.759Z,982.5
2022-09-12T19:02:19.707Z,982.5
2022-09-12T19:06:22.636Z,982.4
2022-09-12T19:08:24.375Z,982.5
2022-09-12T19:10:25.627Z,982.4
2022-09-12T19:12:26.646Z,982.3
2022-09-12T19:14:27.970Z,982.4
2022-09-12T19:16:29.525Z,982.5
2022-09-12T19:18:30.446Z,982.5
2022-09-12T19:20:32.243Z,982.4
2022-09-12T19:22:33.661Z,982.5
2022-09-12T19:24:34.637Z,982.4
2022-09-12T19:26:36.387Z,982.5
2022-09-12T19:28:37.320Z,982.4
2022-09-12T19:32:40.191Z,982.5
2022-09-12T19:34:41.064Z,982.4
2022-09-12T19:36:45.707Z,982.3
2022-09-12T19:38:43.840Z,982.4
2022-09-12T19:42:46.581Z,982.4
2022-09-12T19:44:48.316Z,982.4
2022-09-12T19:46:49.256Z,982.3
2022-09-12T19:48:50.946Z,982.2
2022-09-12T19:50:52.172Z,982.4
2022-09-12T19:52:53.819Z,982.2
2022-09-12T19:54:55.053Z,982.3
2022-09-12T19:56:56.264Z,982.3
2022-09-12T20:03:00.261Z,982.3
2022-09-12T20:05:01.599Z,982.2
2022-09-12T20:07:03.258Z,982.2
2022-09-12T20:09:04.702Z,982.3
2022-09-12T20:11:06.419Z,982.2
2022-09-12T20:13:08.100Z,982.4
2022-09-12T20:13:51.874Z,982.4
2022-09-12T20:17:54.703Z,982.3
2022-09-12T20:19:56.178Z,982.2
2022-09-12T20:21:57.551Z,982.1
2022-09-12T20:23:58.988Z,982.1
2022-09-12T20:25:59.907Z,982.2
2022-09-12T20:28:00.870Z,982.3
2022-09-12T20:30:02.368Z,982.2
2022-09-12T20:32:04.055Z,982.1
2022-09-12T20:34:05.879Z,982.2
2022-09-12T20:36:06.977Z,982.1
2022-09-12T20:38:08.113Z,982.1
2022-09-12T20:40:09.017Z,982.1
2022-09-12T20:42:09.930Z,982.1
2022-09-12T20:44:11.459Z,982.1
2022-09-12T20:46:12.576Z,982.1
2022-09-12T20:48:14.302Z,982.1
2022-09-12T20:50:15.648Z,982.1
2022-09-12T20:52:16.795Z,982
2022-09-12T20:56:19.711Z,982.1
2022-09-12T20:58:21.234Z,982.1
2022-09-12T21:00:22.608Z,982.1
2022-09-12T21:02:24.244Z,982
2022-09-12T21:04:25.058Z,982
2022-09-12T21:06:26.289Z,982
2022-09-12T21:08:27.369Z,981.9
2022-09-12T21:10:28.930Z,982
2022-09-12T21:12:30.357Z,981.9
2022-09-12T21:14:31.797Z,981.9
2022-09-12T21:16:32.947Z,981.9
2022-09-12T21:18:34.232Z,981.9
2022-09-12T21:20:35.339Z,981.9
2022-09-12T21:22:36.778Z,981.8
2022-09-12T21:24:38.168Z,981.8
2022-09-12T21:26:39.526Z,981.8
2022-09-12T21:28:41.156Z,981.7
2022-09-12T21:30:42.701Z,981.8
2022-09-12T21:32:44.392Z,981.8
2022-09-12T21:34:45.570Z,981.9
2022-09-12T21:36:46.832Z,981.8
2022-09-12T21:38:48.352Z,981.8
2022-09-12T21:40:49.292Z,981.7
2022-09-12T21:42:50.352Z,981.8
2022-09-12T21:44:51.294Z,981.8
2022-09-12T21:46:52.991Z,981.8
2022-09-12T21:48:54.193Z,981.8
2022-09-12T21:50:55.935Z,981.8
2022-09-12T21:52:56.868Z,981.7
2022-09-12T21:54:58.388Z,981.8
2022-09-12T21:57:00.258Z,981.7
2022-09-12T21:59:01.426Z,981.7
2022-09-12T22:01:02.889Z,981.6
2022-09-12T22:03:04.280Z,981.7
2022-09-12T22:05:05.246Z,981.7
2022-09-12T22:07:06.539Z,981.6
2022-09-12T22:09:08.239Z,981.6
2022-09-12T22:11:09.822Z,981.5
2022-09-12T22:13:10.889Z,981.5
2022-09-12T22:15:36.192Z,981.5
2022-09-12T22:17:13.836Z,981.7
2022-09-12T22:21:16.217Z,981.5
2022-09-12T22:23:21.236Z,981.6
2022-09-12T22:25:19.146Z,981.6
2022-09-12T22:27:20.118Z,981.5
2022-09-12T22:31:23.290Z,981.4
2022-09-12T22:33:24.977Z,981.4
2022-09-12T22:35:26.161Z,981.3
2022-09-12T22:37:27.363Z,981.3
2022-09-12T22:39:28.521Z,981.3
2022-09-12T22:41:30.316Z,981.3
2022-09-12T22:43:31.499Z,981.3
2022-09-12T22:45:32.514Z,981.3
2022-09-12T22:47:34.046Z,981.4
2022-09-12T22:49:35.735Z,981.3
2022-09-12T22:51:36.844Z,981.3
2022-09-12T22:53:38.036Z,981.2
2022-09-12T22:55:39.794Z,981.4
2022-09-12T22:57:41.473Z,981.4
2022-09-12T22:59:42.862Z,981.3
2022-09-12T23:01:44.629Z,981.4
2022-09-12T23:03:46.504Z,981.3
2022-09-12T23:05:47.688Z,981.4
2022-09-12T23:07:48.904Z,981.3
2022-09-12T23:09:50.732Z,981.4
2022-09-12T23:11:51.735Z,981.5
2022-09-12T23:13:53.320Z,981.3
2022-09-12T23:15:54.632Z,981.3
2022-09-12T23:17:55.708Z,981.4
2022-09-12T23:19:57.297Z,981.3
2022-09-12T23:21:58.761Z,981.3
2022-09-12T23:24:00.441Z,981.3
2022-09-12T23:26:02.103Z,981.4
2022-09-12T23:28:03.967Z,981.3
2022-09-12T23:30:05.071Z,981.4
2022-09-12T23:32:06.622Z,981.3
2022-09-12T23:34:08.452Z,981.3
2022-09-12T23:36:10.128Z,981.3
2022-09-12T23:38:14.591Z,981.3
2022-09-12T23:40:13.372Z,981.3
2022-09-12T23:44:16.837Z,981.2
2022-09-12T23:46:18.568Z,981.2
2022-09-12T23:48:20.297Z,981.2
2022-09-12T23:50:21.938Z,981.3
2022-09-12T23:52:23.805Z,981.2
2022-09-12T23:54:25.337Z,981.2
2022-09-12T23:56:27.021Z,981.2
2022-09-12T23:58:28.349Z,981.1
